createdAt,value
2023-01-21T00:00:57.379Z,79.30
2023-01-21T00:03:24.480Z,80.36
2023-01-21T00:05:51.652Z,80.55
2023-01-21T00:08:18.213Z,80.16
2023-01-21T00:10:44.788Z,80.31
2023-01-21T00:13:11.732Z,79.04
2023-01-21T00:15:39.769Z,78.93
2023-01-21T00:18:06.631Z,78.50
2023-01-21T00:20:33.182Z,78.41
2023-01-21T00:22:59.785Z,78.83
2023-01-21T00:25:26.906Z,79.51
2023-01-21T00:27:53.440Z,79.76
2023-01-21T00:30:21.392Z,78.90
2023-01-21T00:32:48.512Z,79.04
2023-01-21T00:35:15.742Z,78.87
2023-01-21T00:37:42.785Z,78.22
2023-01-21T00:40:09.944Z,77.06
2023-01-21T00:42:36.421Z,75.46
2023-01-21T00:45:03.134Z,74.65
2023-01-21T00:47:29.634Z,74.10
2023-01-21T00:49:56.148Z,73.87
2023-01-21T00:52:22.669Z,73.76
2023-01-21T00:54:49.230Z,74.08
2023-01-21T00:57:16.256Z,76.40
2023-01-21T00:59:43.007Z,76.71
2023-01-21T01:02:10.009Z,78.58
2023-01-21T01:04:36.487Z,79.12
2023-01-21T01:07:03.505Z,77.06
2023-01-21T01:09:30.066Z,77.19
2023-01-21T01:11:56.544Z,77.25
2023-01-21T01:14:23.270Z,77.72
2023-01-21T01:16:50.228Z,79.10
2023-01-21T01:19:17.162Z,79.97
2023-01-21T01:21:43.741Z,80.40
2023-01-21T01:24:10.278Z,80.68
2023-01-21T01:26:36.926Z,80.08
2023-01-21T01:29:04.614Z,81.18
2023-01-21T01:31:31.456Z,81.77
2023-01-21T01:33:58.483Z,83.35
2023-01-21T01:36:25.138Z,83.39
2023-01-21T01:38:53.010Z,82.76
2023-01-21T01:41:24.979Z,80.57
2023-01-21T01:44:33.617Z,80.92
2023-01-21T01:47:01.154Z,80.20
2023-01-21T01:49:27.592Z,79.14
2023-01-21T01:51:57.840Z,77.60
2023-01-21T01:54:39.310Z,78.94
2023-01-21T01:57:07.816Z,79.37
2023-01-21T01:59:34.838Z,79.43
2023-01-21T02:02:08.397Z,79.03
2023-01-21T02:04:52.379Z,77.92
2023-01-21T02:07:21.236Z,79.90
2023-01-21T02:09:48.049Z,80.08
2023-01-21T02:12:15.352Z,82.52
2023-01-21T02:14:44.739Z,79.87
2023-01-21T02:17:17.458Z,77.42
2023-01-21T02:20:09.815Z,77.15
2023-01-21T02:22:59.554Z,76.94
2023-01-21T02:25:40.934Z,77.73
2023-01-21T02:28:29.119Z,77.96
2023-01-21T02:31:05.011Z,79.02
2023-01-21T02:33:57.879Z,77.18
2023-01-21T02:36:43.947Z,76.05
2023-01-21T02:39:18.616Z,79.07
2023-01-21T02:42:00.228Z,79.66
2023-01-21T02:44:43.347Z,79.35
2023-01-21T02:47:31.189Z,79.32
2023-01-21T02:50:05.339Z,80.77
2023-01-21T02:52:31.839Z,80.95
2023-01-21T02:55:00.209Z,81.46
2023-01-21T02:57:36.796Z,79.21
2023-01-21T03:00:09.247Z,78.33
2023-01-21T03:02:48.008Z,79.18
2023-01-21T03:05:24.578Z,80.49
2023-01-21T03:07:59.475Z,81.21
2023-01-21T03:10:32.612Z,79.00
2023-01-21T03:13:02.980Z,78.34
2023-01-21T03:15:55.131Z,78.62
2023-01-21T03:18:45.846Z,78.98
2023-01-21T03:21:17.088Z,78.66
2023-01-21T03:23:45.418Z,77.27
2023-01-21T03:26:14.899Z,77.33
2023-01-21T03:28:45.046Z,77.15
2023-01-21T03:31:27.053Z,79.18
2023-01-21T03:33:56.371Z,80.36
2023-01-21T03:36:37.746Z,79.97
2023-01-21T03:39:10.270Z,79.63
2023-01-21T03:41:38.105Z,80.02
2023-01-21T03:44:04.576Z,79.01
2023-01-21T03:46:41.681Z,79.63
2023-01-21T03:49:20.876Z,80.12
2023-01-21T03:51:50.830Z,79.80
2023-01-21T03:54:17.488Z,80.97
2023-01-21T03:56:43.925Z,80.73
2023-01-21T03:59:10.937Z,82.43
2023-01-21T04:01:37.464Z,80.15
2023-01-21T04:04:04.126Z,81.38
2023-01-21T04:06:30.730Z,80.78
2023-01-21T04:08:57.207Z,81.38
2023-01-21T04:11:24.016Z,79.03
2023-01-21T04:13:50.533Z,77.92
2023-01-21T04:16:17.022Z,77.92
2023-01-21T04:18:43.552Z,79.12
2023-01-21T04:21:10.085Z,79.86
2023-01-21T04:23:36.591Z,78.92
2023-01-21T04:26:03.123Z,80.47
2023-01-21T04:28:29.573Z,78.52
2023-01-21T04:30:56.087Z,78.32
2023-01-21T04:33:22.696Z,78.41
2023-01-21T04:35:49.188Z,80.69
2023-01-21T04:38:15.916Z,79.03
2023-01-21T04:40:42.615Z,79.94
2023-01-21T04:43:09.185Z,79.96
2023-01-21T04:45:35.882Z,80.69
2023-01-21T04:48:02.432Z,82.85
2023-01-21T04:50:28.931Z,79.09
2023-01-21T04:52:55.409Z,80.76
2023-01-21T04:55:22.749Z,79.98
2023-01-21T04:57:50.175Z,79.41
2023-01-21T05:00:17.365Z,79.04
2023-01-21T05:02:43.937Z,81.05
2023-01-21T05:05:10.457Z,82.50
2023-01-21T05:07:37.046Z,81.34
2023-01-21T05:10:04.292Z,82.39
2023-01-21T05:12:30.752Z,78.93
2023-01-21T05:15:00.175Z,78.78
2023-01-21T05:17:26.680Z,78.13
2023-01-21T05:19:53.198Z,78.37
2023-01-21T05:22:19.656Z,78.22
2023-01-21T05:24:46.149Z,78.72
2023-01-21T05:27:12.598Z,81.56
2023-01-21T05:29:40.076Z,83.17
2023-01-21T05:32:06.550Z,81.24
2023-01-21T05:34:33.051Z,81.65
2023-01-21T05:36:59.561Z,81.42
2023-01-21T05:39:26.040Z,80.05
2023-01-21T05:41:52.590Z,79.06
2023-01-21T05:44:19.035Z,78.84
2023-01-21T05:46:45.514Z,79.25
2023-01-21T05:49:11.993Z,79.35
2023-01-21T05:51:38.475Z,77.15
2023-01-21T05:54:04.970Z,77.28
2023-01-21T05:56:31.453Z,78.13
2023-01-21T05:58:57.903Z,77.65
2023-01-21T06:01:24.460Z,78.30
2023-01-21T06:03:50.982Z,80.70
2023-01-21T06:06:17.529Z,79.83
2023-01-21T06:08:44.023Z,78.99
2023-01-21T06:11:10.540Z,79.20
2023-01-21T06:13:36.987Z,79.32
2023-01-21T06:16:03.807Z,80.36
2023-01-21T06:18:30.259Z,79.06
2023-01-21T06:20:59.666Z,79.99
2023-01-21T06:23:26.402Z,80.55
2023-01-21T06:25:52.877Z,80.70
2023-01-21T06:28:19.374Z,82.56
2023-01-21T06:30:45.909Z,81.26
2023-01-21T06:33:12.417Z,80.78
2023-01-21T06:35:38.894Z,79.72
2023-01-21T06:38:05.357Z,77.77
2023-01-21T06:40:31.839Z,77.57
2023-01-21T06:42:58.386Z,77.75
2023-01-21T06:45:24.853Z,78.13
2023-01-21T06:47:51.316Z,77.04
2023-01-21T06:50:18.157Z,77.02
2023-01-21T06:52:47.058Z,79.48
2023-01-21T06:55:14.250Z,80.55
2023-01-21T06:57:43.227Z,78.97
2023-01-21T07:00:10.521Z,79.33
2023-01-21T07:02:37.176Z,80.45
2023-01-21T07:05:04.533Z,80.08
2023-01-21T07:07:31.454Z,78.58
2023-01-21T07:09:58.625Z,78.30
2023-01-21T07:12:25.182Z,76.38
2023-01-21T07:14:51.748Z,76.95
2023-01-21T07:17:18.416Z,77.86
2023-01-21T07:19:44.865Z,76.06
2023-01-21T07:22:12.394Z,75.32
2023-01-21T07:24:38.955Z,75.87
2023-01-21T07:27:06.238Z,76.86
2023-01-21T07:29:32.841Z,76.49
2023-01-21T07:31:59.394Z,75.34
2023-01-21T07:34:25.892Z,75.29
2023-01-21T07:36:52.368Z,78.51
2023-01-21T07:39:18.843Z,78.77
2023-01-21T07:41:45.363Z,77.18
2023-01-21T07:44:11.858Z,75.99
2023-01-21T07:46:38.424Z,76.03
2023-01-21T07:49:04.946Z,75.24
2023-01-21T07:51:31.442Z,75.77
2023-01-21T07:53:58.440Z,76.20
2023-01-21T07:56:26.814Z,75.76
2023-01-21T07:58:53.464Z,75.77
2023-01-21T08:01:28.162Z,75.09
2023-01-21T08:03:54.745Z,78.63
2023-01-21T08:06:21.221Z,79.30
2023-01-21T08:08:47.725Z,80.41
2023-01-21T08:11:14.306Z,79.93
2023-01-21T08:13:40.974Z,81.20
2023-01-21T08:16:07.995Z,80.89
2023-01-21T08:18:34.420Z,80.24
2023-01-21T08:21:00.970Z,79.80
2023-01-21T08:23:27.992Z,80.89
2023-01-21T08:25:54.964Z,82.07
2023-01-21T08:28:22.743Z,82.78
2023-01-21T08:30:49.998Z,81.67
2023-01-21T08:33:16.993Z,81.79
2023-01-21T08:35:43.755Z,80.53
2023-01-21T08:38:11.445Z,80.22
2023-01-21T08:40:37.941Z,80.43
2023-01-21T08:43:06.114Z,82.35
2023-01-21T08:45:32.618Z,81.44
2023-01-21T08:47:59.179Z,80.89
2023-01-21T08:50:25.652Z,80.67
2023-01-21T08:52:53.934Z,81.18
2023-01-21T08:55:21.599Z,80.58
2023-01-21T08:57:53.533Z,83.03
2023-01-21T09:00:21.421Z,80.56
2023-01-21T09:02:50.058Z,79.30
2023-01-21T09:05:18.255Z,78.80
2023-01-21T09:07:45.990Z,77.80
2023-01-21T09:10:12.883Z,77.30
2023-01-21T09:12:42.560Z,76.38
2023-01-21T09:15:09.315Z,77.31
2023-01-21T09:17:36.035Z,78.18
2023-01-21T09:20:02.676Z,77.70
2023-01-21T09:22:29.168Z,76.80
2023-01-21T09:24:55.660Z,76.38
2023-01-21T09:27:27.330Z,76.98
2023-01-21T09:29:54.852Z,77.33
2023-01-21T09:32:21.405Z,78.51
2023-01-21T09:34:47.867Z,77.96
2023-01-21T09:37:19.590Z,79.24
2023-01-21T09:39:47.799Z,80.01
2023-01-21T09:42:18.539Z,78.79
2023-01-21T09:44:47.020Z,79.46
2023-01-21T09:47:23.468Z,80.04
2023-01-21T09:49:56.037Z,80.79
2023-01-21T09:52:39.794Z,81.82
2023-01-21T09:55:15.157Z,81.36
2023-01-21T09:57:49.443Z,82.53
2023-01-21T10:00:28.420Z,80.91
2023-01-21T10:03:21.009Z,80.19
2023-01-21T10:05:53.556Z,79.51
2023-01-21T10:08:29.383Z,77.68
2023-01-21T10:11:14.939Z,79.96
2023-01-21T10:14:05.169Z,82.69
2023-01-21T10:16:42.762Z,80.05
2023-01-21T10:19:21.157Z,79.42
2023-01-21T10:21:57.052Z,80.23
2023-01-21T10:24:35.650Z,81.34
2023-01-21T10:27:02.207Z,81.17
2023-01-21T10:29:31.417Z,81.28
2023-01-21T10:32:07.021Z,81.92
2023-01-21T10:34:38.127Z,80.36
2023-01-21T10:37:23.048Z,81.24
2023-01-21T10:40:03.341Z,80.47
2023-01-21T10:42:51.594Z,79.60
2023-01-21T10:45:36.963Z,80.86
2023-01-21T10:48:37.130Z,81.26
2023-01-21T10:51:24.983Z,81.01
2023-01-21T10:54:03.151Z,79.58
2023-01-21T10:56:40.234Z,79.51
2023-01-21T10:59:09.786Z,80.12
2023-01-21T11:01:42.891Z,80.84
2023-01-21T11:04:18.995Z,79.89
2023-01-21T11:06:47.015Z,79.68
2023-01-21T11:09:14.946Z,79.20
2023-01-21T11:11:43.028Z,79.11
2023-01-21T11:14:10.537Z,80.37
2023-01-21T11:16:47.228Z,81.99
2023-01-21T11:19:16.693Z,80.73
2023-01-21T11:22:04.750Z,79.60
2023-01-21T11:24:41.918Z,79.34
2023-01-21T11:27:22.149Z,79.33
2023-01-21T11:29:50.302Z,80.37
2023-01-21T11:32:24.896Z,79.47
2023-01-21T11:35:09.628Z,79.91
2023-01-21T11:37:37.889Z,80.65
2023-01-21T11:40:14.818Z,79.32
2023-01-21T11:42:49.413Z,77.42
2023-01-21T11:45:27.706Z,80.14
2023-01-21T11:47:54.314Z,79.79
2023-01-21T11:50:26.554Z,78.57
2023-01-21T11:53:09.148Z,78.01
2023-01-21T11:55:41.588Z,79.46
2023-01-21T11:58:28.705Z,78.01
2023-01-21T12:00:57.632Z,78.62
2023-01-21T12:03:31.621Z,77.01
2023-01-21T12:05:58.858Z,77.84
2023-01-21T12:08:29.332Z,75.87
2023-01-21T12:10:58.266Z,75.28
2023-01-21T12:13:28.187Z,75.01
2023-01-21T12:16:13.696Z,75.09
2023-01-21T12:18:54.268Z,72.77
2023-01-21T12:21:50.135Z,71.46
2023-01-21T12:24:38.512Z,71.43
2023-01-21T12:27:37.521Z,71.35
2023-01-21T12:30:15.683Z,69.36
2023-01-21T12:32:47.114Z,69.23
2023-01-21T12:35:27.493Z,69.49
2023-01-21T12:38:15.921Z,70.52
2023-01-21T12:41:02.623Z,72.06
2023-01-21T12:43:42.526Z,70.66
2023-01-21T12:46:28.155Z,69.88
2023-01-21T12:49:04.705Z,70.32
2023-01-21T12:51:41.032Z,70.22
2023-01-21T12:54:19.034Z,69.48
2023-01-21T12:57:09.990Z,70.38
2023-01-21T12:59:42.084Z,70.88
2023-01-21T13:02:28.925Z,71.53
2023-01-21T13:05:00.817Z,73.12
2023-01-21T13:08:00.769Z,72.24
2023-01-21T13:10:37.592Z,71.82
2023-01-21T13:13:31.235Z,69.99
2023-01-21T13:16:02.106Z,71.05
2023-01-21T13:18:35.616Z,70.65
2023-01-21T13:21:43.631Z,71.24
2023-01-21T13:24:23.324Z,71.36
2023-01-21T13:26:57.827Z,70.92
2023-01-21T13:29:36.414Z,70.30
2023-01-21T13:32:36.305Z,69.41
2023-01-21T13:35:16.653Z,68.71
2023-01-21T13:37:50.513Z,70.59
2023-01-21T13:40:44.463Z,70.42
2023-01-21T13:43:54.260Z,70.23
2023-01-21T13:46:42.446Z,71.11
2023-01-21T13:49:36.800Z,70.64
2023-01-21T13:52:27.092Z,70.57
2023-01-21T13:55:16.556Z,70.95
2023-01-21T13:58:04.906Z,70.83
2023-01-21T14:00:35.552Z,71.50
2023-01-21T14:03:21.096Z,70.99
2023-01-21T14:05:55.535Z,71.36
2023-01-21T14:08:27.250Z,70.99
2023-01-21T14:10:58.933Z,71.35
2023-01-21T14:14:03.079Z,72.52
2023-01-21T14:17:06.559Z,71.01
2023-01-21T14:19:57.922Z,71.95
2023-01-21T14:22:52.759Z,72.70
2023-01-21T14:25:29.708Z,70.65
2023-01-21T14:28:17.088Z,71.47
2023-01-21T14:30:48.341Z,71.18
2023-01-21T14:33:24.452Z,72.06
2023-01-21T14:36:05.653Z,72.61
2023-01-21T14:39:06.172Z,71.24
2023-01-21T14:41:54.573Z,71.95
2023-01-21T14:44:42.185Z,72.10
2023-01-21T14:47:31.454Z,72.25
2023-01-21T14:49:59.137Z,73.27
2023-01-21T14:52:45.136Z,73.47
2023-01-21T14:55:29.063Z,72.67
2023-01-21T14:57:56.611Z,74.63
2023-01-21T15:00:36.590Z,75.35
2023-01-21T15:03:03.045Z,73.44
2023-01-21T15:05:33.141Z,74.46
2023-01-21T15:08:21.096Z,75.54
2023-01-21T15:11:17.594Z,74.58
2023-01-21T15:13:44.268Z,74.81
2023-01-21T15:16:33.534Z,75.16
2023-01-21T15:19:12.842Z,76.14
2023-01-21T15:21:42.348Z,76.03
2023-01-21T15:24:30.590Z,77.12
2023-01-21T15:27:03.038Z,76.25
2023-01-21T15:29:37.777Z,78.85
2023-01-21T15:32:29.131Z,78.27
2023-01-21T15:35:15.900Z,77.64
2023-01-21T15:37:45.360Z,77.16
2023-01-21T15:40:25.580Z,78.22
2023-01-21T15:43:34.134Z,77.42
2023-01-21T15:46:13.955Z,78.04
2023-01-21T15:49:05.523Z,77.46
2023-01-21T15:52:03.260Z,77.88
2023-01-21T15:54:48.096Z,77.59
2023-01-21T15:57:39.509Z,76.58
2023-01-21T16:00:32.453Z,79.09
2023-01-21T16:03:25.432Z,79.06
2023-01-21T16:06:13.552Z,79.05
2023-01-21T16:08:52.261Z,77.77
2023-01-21T16:11:21.766Z,78.83
2023-01-21T16:14:14.821Z,78.22
2023-01-21T16:17:16.630Z,78.74
2023-01-21T16:19:45.466Z,79.82
2023-01-21T16:22:14.924Z,78.75
2023-01-21T16:24:47.415Z,80.12
2023-01-21T16:27:18.131Z,78.38
2023-01-21T16:29:45.049Z,78.00
2023-01-21T16:32:19.233Z,77.51
2023-01-21T16:34:46.789Z,77.38
2023-01-21T16:37:15.620Z,77.94
2023-01-21T16:39:42.918Z,77.33
2023-01-21T16:42:31.111Z,77.94
2023-01-21T16:44:58.123Z,78.14
2023-01-21T16:47:33.774Z,78.18
2023-01-21T16:50:01.159Z,77.94
2023-01-21T16:52:28.387Z,78.55
2023-01-21T16:54:55.801Z,77.93
2023-01-21T16:57:32.092Z,79.32
2023-01-21T17:00:02.188Z,79.22
2023-01-21T17:02:31.821Z,77.62
2023-01-21T17:05:00.425Z,79.61
2023-01-21T17:08:08.621Z,79.35
2023-01-21T17:10:40.334Z,80.22
2023-01-21T17:13:12.918Z,78.66
2023-01-21T17:15:42.531Z,78.38
2023-01-21T17:18:17.719Z,78.37
2023-01-21T17:20:47.903Z,76.95
2023-01-21T17:23:28.035Z,77.68
2023-01-21T17:25:58.049Z,79.73
2023-01-21T17:28:59.943Z,78.53
2023-01-21T17:31:37.243Z,77.83
2023-01-21T17:34:15.943Z,77.02
2023-01-21T17:36:48.031Z,77.30
2023-01-21T17:39:17.108Z,76.62
2023-01-21T17:41:46.228Z,79.16
2023-01-21T17:44:19.817Z,77.81
2023-01-21T17:46:52.009Z,78.70
2023-01-21T17:49:21.129Z,79.18
2023-01-21T17:51:48.544Z,79.10
2023-01-21T17:54:26.546Z,78.48
2023-01-21T17:56:58.084Z,78.15
2023-01-21T17:59:34.049Z,77.15
2023-01-21T18:02:01.849Z,76.63
2023-01-21T18:04:28.628Z,76.78
2023-01-21T18:06:55.354Z,77.04
2023-01-21T18:09:23.281Z,79.39
2023-01-21T18:11:52.448Z,76.68
2023-01-21T18:14:24.536Z,77.10
2023-01-21T18:16:52.873Z,77.04
2023-01-21T18:19:33.936Z,76.00
2023-01-21T18:22:02.008Z,75.13
2023-01-21T18:24:28.723Z,74.83
2023-01-21T18:26:57.244Z,75.13
2023-01-21T18:29:27.642Z,74.76
2023-01-21T18:31:54.096Z,75.09
2023-01-21T18:34:20.625Z,75.15
2023-01-21T18:36:47.160Z,76.51
2023-01-21T18:39:16.322Z,76.65
2023-01-21T18:41:42.975Z,77.24
2023-01-21T18:44:10.338Z,76.25
2023-01-21T18:46:43.859Z,76.21
2023-01-21T18:49:19.268Z,77.23
2023-01-21T18:51:46.523Z,76.89
2023-01-21T18:54:14.084Z,77.03
2023-01-21T18:56:42.297Z,77.21
2023-01-21T18:59:13.891Z,77.21
2023-01-21T19:01:41.327Z,75.86
2023-01-21T19:04:09.771Z,75.42
2023-01-21T19:06:36.611Z,75.30
2023-01-21T19:09:03.898Z,74.41
2023-01-21T19:11:30.347Z,75.94
2023-01-21T19:13:56.879Z,75.76
2023-01-21T19:16:23.366Z,76.66
2023-01-21T19:18:49.936Z,76.53
2023-01-21T19:21:16.486Z,75.71
2023-01-21T19:23:42.992Z,74.99
2023-01-21T19:26:13.749Z,74.91
2023-01-21T19:28:40.311Z,77.37
2023-01-21T19:31:07.001Z,75.90
2023-01-21T19:33:33.582Z,76.01
2023-01-21T19:36:03.258Z,78.74
2023-01-21T19:38:30.207Z,78.25
2023-01-21T19:40:56.794Z,78.00
2023-01-21T19:43:23.465Z,77.52
2023-01-21T19:45:51.478Z,76.15
2023-01-21T19:48:19.462Z,77.12
2023-01-21T19:50:46.030Z,76.64
2023-01-21T19:53:17.966Z,74.55
2023-01-21T19:55:45.775Z,77.37
2023-01-21T19:58:19.831Z,76.03
2023-01-21T20:00:51.702Z,76.90
2023-01-21T20:03:19.508Z,75.36
2023-01-21T20:05:48.098Z,74.50
2023-01-21T20:08:22.741Z,75.42
2023-01-21T20:10:49.387Z,76.77
2023-01-21T20:13:16.205Z,77.72
2023-01-21T20:15:44.081Z,76.70
2023-01-21T20:18:17.338Z,77.02
2023-01-21T20:20:43.790Z,78.44
2023-01-21T20:23:15.056Z,79.05
2023-01-21T20:25:43.672Z,77.83
2023-01-21T20:28:27.948Z,76.86
2023-01-21T20:30:55.075Z,79.63
2023-01-21T20:33:23.014Z,78.49
2023-01-21T20:35:51.633Z,77.40
2023-01-21T20:38:24.211Z,76.15
2023-01-21T20:40:50.711Z,78.89
2023-01-21T20:43:20.000Z,75.46
2023-01-21T20:45:47.870Z,75.51
2023-01-21T20:48:19.015Z,78.57
2023-01-21T20:50:46.056Z,77.67
2023-01-21T20:53:12.634Z,77.90
2023-01-21T20:55:39.955Z,77.71
2023-01-21T20:58:06.853Z,78.46
2023-01-21T21:00:35.612Z,78.43
2023-01-21T21:03:02.324Z,79.30
2023-01-21T21:05:29.090Z,77.77
2023-01-21T21:07:55.963Z,78.21
2023-01-21T21:10:36.211Z,78.11
2023-01-21T21:13:03.644Z,77.71
2023-01-21T21:15:34.796Z,79.06
2023-01-21T21:18:01.735Z,77.91
2023-01-21T21:20:30.625Z,77.08
2023-01-21T21:22:57.109Z,77.82
2023-01-21T21:25:25.611Z,76.59
2023-01-21T21:27:53.475Z,76.70
2023-01-21T21:30:29.770Z,76.13
2023-01-21T21:32:57.683Z,76.02
2023-01-21T21:35:30.991Z,77.53
2023-01-21T21:38:01.018Z,76.51
2023-01-21T21:40:29.372Z,77.05
2023-01-21T21:43:15.486Z,76.07
2023-01-21T21:46:02.727Z,74.85
2023-01-21T21:48:39.301Z,75.38
2023-01-21T21:51:06.376Z,76.42
2023-01-21T21:53:32.914Z,75.96
2023-01-21T21:56:10.168Z,74.29
2023-01-21T21:58:36.919Z,75.04
2023-01-21T22:01:29.517Z,74.28
2023-01-21T22:04:00.165Z,73.83
2023-01-21T22:06:26.702Z,75.89
2023-01-21T22:08:54.620Z,75.53
2023-01-21T22:11:22.379Z,75.98
2023-01-21T22:13:50.478Z,77.74
2023-01-21T22:16:23.737Z,76.68
2023-01-21T22:18:51.687Z,75.03
2023-01-21T22:21:21.843Z,75.63
2023-01-21T22:23:49.444Z,74.55
2023-01-21T22:26:19.861Z,75.35
2023-01-21T22:28:46.828Z,74.87
2023-01-21T22:31:19.144Z,74.69
2023-01-21T22:33:46.071Z,72.07
2023-01-21T22:36:20.975Z,72.80
2023-01-21T22:38:47.952Z,73.91
2023-01-21T22:41:16.281Z,75.30
2023-01-21T22:43:44.861Z,74.91
2023-01-21T22:46:13.675Z,75.14
2023-01-21T22:48:41.511Z,74.44
2023-01-21T22:51:10.137Z,74.60
2023-01-21T22:53:36.659Z,74.96
2023-01-21T22:56:05.012Z,74.08
2023-01-21T22:58:32.920Z,74.79
2023-01-21T23:01:00.219Z,74.23
2023-01-21T23:03:27.700Z,75.25
2023-01-21T23:05:54.439Z,75.80
2023-01-21T23:08:21.550Z,75.36
2023-01-21T23:10:48.295Z,74.36
2023-01-21T23:13:16.032Z,75.66
2023-01-21T23:15:47.049Z,73.85
2023-01-21T23:18:14.843Z,74.65
2023-01-21T23:20:43.224Z,74.77
2023-01-21T23:23:10.440Z,75.54
2023-01-21T23:25:44.463Z,75.35
2023-01-21T23:28:11.640Z,74.92
2023-01-21T23:30:38.898Z,75.15
2023-01-21T23:33:05.740Z,76.24
2023-01-21T23:35:34.517Z,74.92
2023-01-21T23:38:02.136Z,76.30
2023-01-21T23:40:28.592Z,74.90
2023-01-21T23:42:55.060Z,75.29
2023-01-21T23:45:21.522Z,76.33
2023-01-21T23:47:47.975Z,76.00
2023-01-21T23:50:14.465Z,76.86
2023-01-21T23:52:41.499Z,75.66
2023-01-21T23:55:09.813Z,71.50
2023-01-21T23:57:37.732Z,74.83
